Time;durP1;ratioP1;P1;durP2;ratioP2;P2;SDS_P1;SDS_P2;PMS_P1;PMS_P2;Temp;Humidity;BMP_temperature;BMP_pressure;BME280_temperature;BME280_humidity;BME280_pressure;Samples;Min_cycle;Max_cycle;Signal;HPM_P1;HPM_P2
2023/04/10 00:00:44;;;;;;;8.40;5.55;;;;;;;;;;5068053;28;20428;-63
2023/04/10 00:03:10;;;;;;;8.90;4.95;;;;;;;;;;5072730;28;20027;-63
2023/04/10 00:05:35;;;;;;;7.05;4.90;;;;;;;;;;5066682;28;20438;-63
2023/04/10 00:08:02;;;;;;;6.60;4.70;;;;;;;;;;5067189;28;20441;-64
2023/04/10 00:10:29;;;;;;;9.70;4.68;;;;;;;;;;5086987;28;20016;-63
2023/04/10 00:12:55;;;;;;;6.68;4.28;;;;;;;;;;5082549;28;20067;-63
2023/04/10 00:15:20;;;;;;;6.20;4.63;;;;;;;;;;5077208;28;20052;-63
2023/04/10 00:17:45;;;;;;;6.05;4.60;;;;;;;;;;5071371;28;20417;-63
2023/04/10 00:20:11;;;;;;;11.18;4.68;;;;;;;;;;5073166;28;20029;-63
2023/04/10 00:22:36;;;;;;;8.27;4.80;;;;;;;;;;5067324;28;20068;-63
2023/04/10 00:25:01;;;;;;;7.53;4.85;;;;;;;;;;5078553;28;20047;-63
2023/04/10 00:27:27;;;;;;;7.18;4.35;;;;;;;;;;5066165;28;20024;-63
2023/04/10 00:29:52;;;;;;;6.88;4.28;;;;;;;;;;5066406;28;20046;-63
2023/04/10 00:32:17;;;;;;;6.63;4.10;;;;;;;;;;5067852;28;20025;-63
2023/04/10 00:34:43;;;;;;;6.60;4.25;;;;;;;;;;5064215;28;20028;-63
2023/04/10 00:37:08;;;;;;;7.13;5.03;;;;;;;;;;5062892;28;20147;-63
2023/04/10 00:39:33;;;;;;;7.72;4.55;;;;;;;;;;5062093;28;20688;-64
2023/04/10 00:42:00;;;;;;;11.18;4.70;;;;;;;;;;5065512;28;20142;-63
2023/04/10 00:44:25;;;;;;;7.00;4.53;;;;;;;;;;5064875;28;20080;-63
2023/04/10 00:46:50;;;;;;;7.55;5.05;;;;;;;;;;5065960;28;20154;-63
2023/04/10 00:49:17;;;;;;;5.80;4.20;;;;;;;;;;5067422;28;20052;-63
2023/04/10 00:51:43;;;;;;;9.63;4.93;;;;;;;;;;5067279;28;20035;-63
2023/04/10 00:54:10;;;;;;;6.55;5.07;;;;;;;;;;5066803;28;20027;-63
2023/04/10 00:56:35;;;;;;;6.13;4.43;;;;;;;;;;5067850;28;20043;-63
2023/04/10 00:59:01;;;;;;;8.70;5.20;;;;;;;;;;5073080;28;20016;-63
2023/04/10 01:01:26;;;;;;;7.00;4.43;;;;;;;;;;5064566;28;20079;-63
2023/04/10 01:03:52;;;;;;;9.25;5.10;;;;;;;;;;5071852;28;20166;-63
2023/04/10 01:06:25;;;;;;;6.95;4.97;;;;;;;;;;5072494;28;20029;-64
2023/04/10 01:09:06;;;;;;;8.40;5.18;;;;;;;;;;5062981;28;20036;-63
2023/04/10 01:11:51;;;;;;;7.03;4.40;;;;;;;;;;5077492;28;20021;-63
2023/04/10 01:14:35;;;;;;;6.35;4.65;;;;;;;;;;5071861;28;20558;-63
2023/04/10 01:17:04;;;;;;;8.90;4.80;;;;;;;;;;5072519;28;20062;-63
2023/04/10 01:19:44;;;;;;;6.10;4.75;;;;;;;;;;5074562;28;20021;-64
2023/04/10 01:22:12;;;;;;;7.20;5.53;;;;;;;;;;5073977;28;20796;-63
2023/04/10 01:25:00;;;;;;;8.07;4.60;;;;;;;;;;5072170;28;20024;-64
2023/04/10 01:27:34;;;;;;;7.68;4.75;;;;;;;;;;5059687;28;20048;-64
2023/04/10 01:30:01;;;;;;;6.43;5.22;;;;;;;;;;5071156;28;20028;-63
2023/04/10 01:32:27;;;;;;;9.68;5.22;;;;;;;;;;5070549;28;20074;-63
2023/04/10 01:34:54;;;;;;;7.32;5.13;;;;;;;;;;5068135;28;20033;-63
2023/04/10 01:37:20;;;;;;;7.72;5.53;;;;;;;;;;5067407;28;20033;-63
2023/04/10 01:39:48;;;;;;;7.85;4.90;;;;;;;;;;5072332;28;20109;-64
2023/04/10 01:42:15;;;;;;;7.70;4.90;;;;;;;;;;5073009;28;20544;-63
2023/04/10 01:44:41;;;;;;;9.48;5.18;;;;;;;;;;5073685;28;20079;-64
2023/04/10 01:47:07;;;;;;;6.50;4.80;;;;;;;;;;5073189;28;20036;-64
2023/04/10 01:49:33;;;;;;;8.38;5.10;;;;;;;;;;5073095;28;20028;-64
2023/04/10 01:51:59;;;;;;;6.53;4.40;;;;;;;;;;5070830;28;20900;-64
2023/04/10 01:54:29;;;;;;;6.72;5.00;;;;;;;;;;5076780;28;20469;-64
2023/04/10 01:56:55;;;;;;;7.00;4.93;;;;;;;;;;5076675;28;20013;-63
2023/04/10 01:59:20;;;;;;;8.70;6.00;;;;;;;;;;5072631;28;20047;-63
2023/04/10 02:01:46;;;;;;;8.48;5.22;;;;;;;;;;5073578;28;20486;-64
2023/04/10 02:04:11;;;;;;;8.98;5.28;;;;;;;;;;5082627;28;20036;-63
2023/04/10 02:06:41;;;;;;;9.52;5.32;;;;;;;;;;5067148;28;20036;-64
2023/04/10 02:09:15;;;;;;;9.57;5.68;;;;;;;;;;5077467;28;20033;-63
2023/04/10 02:11:43;;;;;;;11.52;5.07;;;;;;;;;;5073315;28;20024;-63
2023/04/10 02:14:10;;;;;;;9.20;5.28;;;;;;;;;;5071930;28;20024;-63
2023/04/10 02:16:37;;;;;;;7.60;4.65;;;;;;;;;;5072925;28;20028;-64
2023/04/10 02:19:03;;;;;;;8.90;4.97;;;;;;;;;;5078455;28;20028;-63
2023/04/10 02:21:28;;;;;;;8.25;5.28;;;;;;;;;;5083975;28;20023;-63
2023/04/10 02:23:55;;;;;;;6.85;4.95;;;;;;;;;;5072430;28;20016;-63
2023/04/10 02:26:20;;;;;;;7.80;5.38;;;;;;;;;;5068862;28;20404;-65
2023/04/10 02:28:46;;;;;;;7.88;5.05;;;;;;;;;;5070951;28;20035;-64
2023/04/10 02:31:11;;;;;;;7.20;5.10;;;;;;;;;;5069659;28;20051;-63
2023/04/10 02:33:36;;;;;;;8.13;4.55;;;;;;;;;;5068521;28;20048;-63
2023/04/10 02:36:01;;;;;;;7.35;4.90;;;;;;;;;;5067911;28;20733;-64
2023/04/10 02:38:27;;;;;;;7.20;4.80;;;;;;;;;;5068785;28;20036;-63
2023/04/10 02:40:52;;;;;;;8.15;4.90;;;;;;;;;;5069292;28;20068;-63
2023/04/10 02:43:17;;;;;;;6.88;5.03;;;;;;;;;;5069881;28;20035;-63
2023/04/10 02:45:43;;;;;;;11.85;5.07;;;;;;;;;;5064028;28;20023;-63
2023/04/10 02:48:09;;;;;;;6.78;5.13;;;;;;;;;;5067790;28;20050;-63
2023/04/10 02:50:35;;;;;;;7.75;5.28;;;;;;;;;;5074517;28;20052;-63
2023/04/10 02:53:00;;;;;;;7.63;6.10;;;;;;;;;;5066861;28;20028;-64
2023/04/10 02:55:25;;;;;;;7.30;5.45;;;;;;;;;;5070201;28;20105;-65
2023/04/10 02:57:50;;;;;;;7.88;5.43;;;;;;;;;;5070263;28;20032;-64
2023/04/10 03:00:18;;;;;;;9.35;6.70;;;;;;;;;;5068429;28;20470;-64
2023/04/10 03:02:43;;;;;;;8.40;5.90;;;;;;;;;;5067267;28;20024;-63
2023/04/10 03:05:08;;;;;;;10.25;6.90;;;;;;;;;;5063562;28;20039;-63
2023/04/10 03:07:33;;;;;;;8.45;5.95;;;;;;;;;;5068040;28;20062;-63
2023/04/10 03:09:59;;;;;;;8.30;6.65;;;;;;;;;;5081225;28;20038;-64
2023/04/10 03:12:24;;;;;;;9.20;6.10;;;;;;;;;;5066916;28;20021;-65
2023/04/10 03:14:49;;;;;;;11.98;6.85;;;;;;;;;;5069216;28;20036;-64
2023/04/10 03:17:15;;;;;;;11.68;6.68;;;;;;;;;;5067595;28;20024;-64
2023/04/10 03:19:40;;;;;;;8.18;6.07;;;;;;;;;;5073386;28;20124;-64
2023/04/10 03:22:06;;;;;;;8.60;6.18;;;;;;;;;;5069866;28;20029;-64
2023/04/10 03:24:31;;;;;;;11.07;7.70;;;;;;;;;;5066100;28;20032;-65
2023/04/10 03:26:57;;;;;;;8.68;6.07;;;;;;;;;;5068762;28;20052;-65
2023/04/10 03:29:22;;;;;;;8.25;6.25;;;;;;;;;;5068446;28;20032;-63
2023/04/10 03:31:48;;;;;;;9.63;6.28;;;;;;;;;;5069507;28;20028;-62
2023/04/10 03:34:13;;;;;;;9.60;7.15;;;;;;;;;;5068221;28;20463;-62
2023/04/10 03:36:38;;;;;;;9.50;6.80;;;;;;;;;;5066563;28;20044;-63
2023/04/10 03:39:04;;;;;;;8.45;6.40;;;;;;;;;;5068209;28;20077;-63
2023/04/10 03:41:30;;;;;;;10.00;6.90;;;;;;;;;;5068576;28;20087;-63
2023/04/10 03:43:55;;;;;;;13.57;7.25;;;;;;;;;;5067723;28;20471;-63
2023/04/10 03:46:21;;;;;;;10.52;6.97;;;;;;;;;;5074779;28;20028;-62
2023/04/10 03:48:48;;;;;;;8.48;6.60;;;;;;;;;;5068376;28;20051;-63
2023/04/10 03:51:13;;;;;;;8.98;6.80;;;;;;;;;;5067681;28;20020;-63
2023/04/10 03:53:39;;;;;;;8.18;6.07;;;;;;;;;;5067856;28;20029;-65
2023/04/10 03:56:05;;;;;;;9.20;6.57;;;;;;;;;;5068801;28;20036;-63
2023/04/10 03:58:30;;;;;;;8.43;5.47;;;;;;;;;;5068391;28;20794;-63
2023/04/10 04:00:55;;;;;;;8.23;5.75;;;;;;;;;;5075719;28;20028;-64
2023/04/10 04:03:20;;;;;;;9.48;5.93;;;;;;;;;;5068189;28;20475;-64
2023/04/10 04:05:46;;;;;;;10.02;6.93;;;;;;;;;;5068977;28;20540;-64
2023/04/10 04:08:12;;;;;;;9.27;5.85;;;;;;;;;;5069915;28;20124;-63
2023/04/10 04:10:38;;;;;;;8.98;5.85;;;;;;;;;;5080466;28;20426;-63
2023/04/10 04:13:03;;;;;;;8.88;6.25;;;;;;;;;;5074255;28;20095;-63
2023/04/10 04:15:28;;;;;;;8.93;6.95;;;;;;;;;;5082675;28;20027;-62
2023/04/10 04:17:53;;;;;;;8.43;6.10;;;;;;;;;;5074837;28;20020;-63
2023/04/10 04:20:19;;;;;;;7.30;5.63;;;;;;;;;;5069173;28;20098;-63
2023/04/10 04:22:45;;;;;;;10.30;6.22;;;;;;;;;;5069482;28;20012;-63
2023/04/10 04:25:10;;;;;;;7.53;5.70;;;;;;;;;;5068455;28;20024;-63
2023/04/10 04:27:36;;;;;;;8.93;6.43;;;;;;;;;;5070525;28;20483;-64
2023/04/10 04:30:02;;;;;;;11.10;6.63;;;;;;;;;;5079092;28;20433;-63
2023/04/10 04:32:27;;;;;;;8.25;6.47;;;;;;;;;;5068074;28;20083;-63
2023/04/10 04:34:52;;;;;;;9.32;6.88;;;;;;;;;;5079526;28;20029;-63
2023/04/10 04:37:17;;;;;;;9.77;6.53;;;;;;;;;;5079692;28;20494;-63
2023/04/10 04:39:43;;;;;;;10.07;5.95;;;;;;;;;;5069769;28;20036;-63
2023/04/10 04:42:08;;;;;;;9.25;6.63;;;;;;;;;;5079314;28;20020;-63
2023/04/10 04:44:34;;;;;;;10.70;6.78;;;;;;;;;;5066356;28;20077;-63
2023/04/10 04:46:59;;;;;;;11.10;7.10;;;;;;;;;;5064610;28;20063;-63
2023/04/10 04:49:25;;;;;;;10.20;7.32;;;;;;;;;;5053483;28;20497;-63
2023/04/10 04:51:50;;;;;;;10.43;6.25;;;;;;;;;;5071160;28;20039;-64
2023/04/10 04:54:15;;;;;;;9.98;7.25;;;;;;;;;;5066966;28;20044;-63
2023/04/10 04:56:41;;;;;;;11.25;7.22;;;;;;;;;;5067993;28;20056;-63
2023/04/10 04:59:06;;;;;;;8.70;6.38;;;;;;;;;;5068456;28;20028;-63
2023/04/10 05:01:31;;;;;;;8.98;6.80;;;;;;;;;;5076803;28;20020;-63
2023/04/10 05:03:56;;;;;;;10.27;7.53;;;;;;;;;;5067827;28;20035;-62
2023/04/10 05:06:22;;;;;;;10.52;7.95;;;;;;;;;;5066119;28;20468;-63
2023/04/10 05:08:47;;;;;;;10.77;7.70;;;;;;;;;;5065762;28;20016;-62
2023/04/10 05:11:12;;;;;;;8.75;7.10;;;;;;;;;;5072137;28;20031;-63
2023/04/10 05:13:37;;;;;;;11.40;7.68;;;;;;;;;;5067643;28;20028;-63
2023/04/10 05:16:03;;;;;;;11.85;7.55;;;;;;;;;;5075764;28;20390;-62
2023/04/10 05:18:28;;;;;;;10.48;7.88;;;;;;;;;;5068375;28;20025;-63
2023/04/10 05:20:53;;;;;;;10.05;7.05;;;;;;;;;;5071255;28;20020;-63
2023/04/10 05:23:19;;;;;;;13.70;8.27;;;;;;;;;;5073363;28;20604;-63
2023/04/10 05:25:44;;;;;;;10.70;7.22;;;;;;;;;;5071510;28;20032;-63
2023/04/10 05:28:10;;;;;;;11.02;7.60;;;;;;;;;;5072370;28;20033;-63
2023/04/10 05:30:35;;;;;;;11.93;7.88;;;;;;;;;;5071198;28;20040;-63
2023/04/10 05:33:00;;;;;;;12.98;7.65;;;;;;;;;;5071130;28;20475;-63
2023/04/10 05:35:26;;;;;;;13.20;9.45;;;;;;;;;;5070459;28;20043;-63
2023/04/10 05:37:51;;;;;;;13.65;9.90;;;;;;;;;;5068335;28;20028;-63
2023/04/10 05:40:16;;;;;;;15.32;8.88;;;;;;;;;;5068147;28;20104;-63
2023/04/10 05:42:41;;;;;;;12.05;7.85;;;;;;;;;;5070756;28;20493;-63
2023/04/10 05:45:07;;;;;;;11.35;7.90;;;;;;;;;;5070584;28;20374;-62
2023/04/10 05:47:32;;;;;;;10.85;7.32;;;;;;;;;;5068541;28;20075;-62
2023/04/10 05:49:57;;;;;;;13.32;7.25;;;;;;;;;;5069463;28;20051;-62
2023/04/10 05:52:23;;;;;;;11.13;6.78;;;;;;;;;;5070217;28;20035;-62
2023/04/10 05:54:48;;;;;;;9.27;7.35;;;;;;;;;;5071110;28;20082;-63
2023/04/10 05:57:14;;;;;;;10.20;6.90;;;;;;;;;;5078863;28;20052;-63
2023/04/10 05:59:39;;;;;;;8.73;6.43;;;;;;;;;;5082169;28;20035;-63
2023/04/10 06:02:05;;;;;;;9.07;6.65;;;;;;;;;;5085241;28;20028;-64
2023/04/10 06:04:30;;;;;;;12.05;6.50;;;;;;;;;;5078600;28;20488;-63
2023/04/10 06:06:57;;;;;;;9.25;6.40;;;;;;;;;;5080926;28;20032;-63
2023/04/10 06:09:22;;;;;;;9.95;6.72;;;;;;;;;;5071835;28;20081;-63
2023/04/10 06:11:47;;;;;;;10.00;6.88;;;;;;;;;;5075429;28;20025;-67
2023/04/10 06:14:12;;;;;;;8.60;6.95;;;;;;;;;;5073070;28;20032;-63
2023/04/10 06:16:38;;;;;;;8.50;5.88;;;;;;;;;;5070675;28;20116;-63
2023/04/10 06:19:03;;;;;;;7.38;5.60;;;;;;;;;;5070020;28;20024;-63
2023/04/10 06:21:28;;;;;;;8.43;6.43;;;;;;;;;;5073057;28;20091;-63
2023/04/10 06:23:53;;;;;;;8.82;6.63;;;;;;;;;;5075577;28;20054;-61
2023/04/10 06:26:19;;;;;;;9.93;5.80;;;;;;;;;;5084637;28;20040;-62
2023/04/10 06:28:44;;;;;;;7.90;5.75;;;;;;;;;;5071971;28;20556;-63
2023/04/10 06:31:10;;;;;;;9.52;6.20;;;;;;;;;;5073754;28;20756;-64
2023/04/10 06:33:35;;;;;;;9.10;6.38;;;;;;;;;;5077386;28;20052;-61
2023/04/10 06:36:00;;;;;;;7.00;5.70;;;;;;;;;;5070080;28;20035;-64
2023/04/10 06:38:26;;;;;;;8.73;6.45;;;;;;;;;;5074495;28;20032;-63
2023/04/10 06:40:51;;;;;;;9.48;6.30;;;;;;;;;;5072760;28;20099;-62
2023/04/10 06:43:16;;;;;;;7.15;5.78;;;;;;;;;;5073184;28;20016;-62
2023/04/10 06:45:41;;;;;;;9.02;5.72;;;;;;;;;;5076773;28;20377;-62
2023/04/10 06:48:07;;;;;;;11.00;6.53;;;;;;;;;;5073579;28;20027;-62
2023/04/10 06:50:32;;;;;;;8.23;5.65;;;;;;;;;;5076240;28;20032;-62
2023/04/10 06:52:58;;;;;;;7.65;5.93;;;;;;;;;;5073020;28;20067;-62
2023/04/10 06:55:24;;;;;;;9.73;5.80;;;;;;;;;;5070548;28;20051;-62
2023/04/10 06:57:50;;;;;;;8.60;5.10;;;;;;;;;;5077462;28;20027;-62
2023/04/10 07:00:15;;;;;;;8.23;5.78;;;;;;;;;;5075821;28;20032;-62
2023/04/10 07:02:40;;;;;;;6.95;5.38;;;;;;;;;;5073654;28;20036;-62
2023/04/10 07:05:06;;;;;;;9.40;5.70;;;;;;;;;;5082443;28;20483;-62
2023/04/10 07:07:31;;;;;;;7.38;5.22;;;;;;;;;;5072441;28;20033;-64
2023/04/10 07:09:57;;;;;;;8.13;5.20;;;;;;;;;;5082651;28;20138;-64
2023/04/10 07:12:22;;;;;;;6.95;5.38;;;;;;;;;;5073024;28;20047;-64
2023/04/10 07:14:48;;;;;;;8.95;5.28;;;;;;;;;;5074076;28;20089;-63
2023/04/10 07:17:13;;;;;;;6.55;5.00;;;;;;;;;;5072721;28;20089;-64
2023/04/10 07:19:38;;;;;;;8.30;4.80;;;;;;;;;;5079738;28;20028;-64
2023/04/10 07:22:03;;;;;;;6.95;5.50;;;;;;;;;;5069197;28;20364;-63
2023/04/10 07:24:30;;;;;;;7.80;4.97;;;;;;;;;;5078839;28;20489;-65
2023/04/10 07:26:56;;;;;;;7.95;4.47;;;;;;;;;;5047664;28;20070;-64
2023/04/10 07:29:21;;;;;;;5.88;4.20;;;;;;;;;;5043428;28;20032;-63
2023/04/10 07:31:46;;;;;;;17.08;5.07;;;;;;;;;;5072123;28;20037;-63
2023/04/10 07:34:12;;;;;;;6.45;4.78;;;;;;;;;;5078330;28;20095;-64
2023/04/10 07:36:37;;;;;;;6.05;3.83;;;;;;;;;;5074540;28;20024;-64
2023/04/10 07:39:02;;;;;;;6.30;4.22;;;;;;;;;;5075751;28;20023;-62
2023/04/10 07:41:28;;;;;;;7.78;5.03;;;;;;;;;;5075305;28;20028;-62
2023/04/10 07:43:53;;;;;;;6.28;4.22;;;;;;;;;;5074368;28;20024;-62
2023/04/10 07:46:19;;;;;;;7.13;4.20;;;;;;;;;;5074806;28;20570;-62
2023/04/10 07:48:46;;;;;;;10.20;4.25;;;;;;;;;;5073048;28;20064;-62
2023/04/10 07:51:11;;;;;;;7.28;3.90;;;;;;;;;;5071110;28;20030;-62
2023/04/10 07:53:37;;;;;;;8.40;4.30;;;;;;;;;;5073715;28;20040;-63
2023/04/10 07:56:02;;;;;;;9.80;4.35;;;;;;;;;;5069819;28;20020;-63
2023/04/10 07:58:27;;;;;;;6.03;3.80;;;;;;;;;;5068428;28;20123;-62
2023/04/10 08:00:53;;;;;;;6.85;3.95;;;;;;;;;;5087201;28;20032;-63
2023/04/10 08:03:18;;;;;;;6.38;3.85;;;;;;;;;;5081947;28;20016;-62
2023/04/10 08:05:43;;;;;;;5.72;3.35;;;;;;;;;;5082984;28;20024;-64
2023/04/10 08:08:09;;;;;;;5.93;3.67;;;;;;;;;;5078779;28;20115;-62
2023/04/10 08:10:37;;;;;;;7.03;4.15;;;;;;;;;;5085195;28;20386;-64
2023/04/10 08:13:03;;;;;;;6.07;3.42;;;;;;;;;;5077308;28;20444;-64
2023/04/10 08:15:28;;;;;;;5.07;3.13;;;;;;;;;;5077555;28;20058;-62
2023/04/10 08:17:53;;;;;;;10.02;3.80;;;;;;;;;;5070885;28;20032;-62
2023/04/10 08:20:19;;;;;;;5.38;3.50;;;;;;;;;;5076814;28;20024;-62
2023/04/10 08:22:45;;;;;;;6.50;3.38;;;;;;;;;;5071045;28;20178;-63
2023/04/10 08:25:11;;;;;;;5.90;3.47;;;;;;;;;;5074780;28;20086;-63
2023/04/10 08:27:36;;;;;;;9.45;3.90;;;;;;;;;;5073059;28;20029;-63
2023/04/10 08:30:02;;;;;;;4.43;3.08;;;;;;;;;;5072364;28;20021;-63
2023/04/10 08:32:28;;;;;;;6.28;3.70;;;;;;;;;;5072941;28;20021;-65
2023/04/10 08:34:53;;;;;;;6.07;3.72;;;;;;;;;;5071773;28;20067;-62
2023/04/10 08:37:20;;;;;;;7.20;3.10;;;;;;;;;;5071494;28;20031;-62
2023/04/10 08:39:45;;;;;;;5.53;3.60;;;;;;;;;;5074368;28;20023;-62
2023/04/10 08:42:10;;;;;;;3.22;2.47;;;;;;;;;;5071611;28;20082;-62
2023/04/10 08:44:36;;;;;;;4.65;3.40;;;;;;;;;;5075797;28;20032;-64
2023/04/10 08:47:02;;;;;;;5.38;3.50;;;;;;;;;;5085244;28;20090;-65
2023/04/10 08:49:27;;;;;;;6.88;3.88;;;;;;;;;;5075722;28;20411;-66
2023/04/10 08:51:57;;;;;;;4.80;3.47;;;;;;;;;;5076882;28;20067;-67
2023/04/10 08:54:27;;;;;;;4.70;3.08;;;;;;;;;;5084519;28;20282;-64
2023/04/10 08:56:53;;;;;;;5.03;2.97;;;;;;;;;;5075499;28;20064;-63
2023/04/10 08:59:18;;;;;;;3.60;2.53;;;;;;;;;;5081960;28;20024;-64
2023/04/10 09:01:45;;;;;;;6.13;2.97;;;;;;;;;;5074830;28;20115;-64
2023/04/10 09:04:11;;;;;;;5.15;3.00;;;;;;;;;;5071047;28;20036;-64
2023/04/10 09:06:36;;;;;;;5.45;3.45;;;;;;;;;;5074066;28;20028;-63
2023/04/10 09:09:02;;;;;;;5.10;3.27;;;;;;;;;;5069004;28;20371;-63
2023/04/10 09:11:45;;;;;;;6.65;3.53;;;;;;;;;;5077620;28;20262;-63
2023/04/10 09:14:21;;;;;;;5.63;2.95;;;;;;;;;;5072090;28;20035;-63
2023/04/10 09:16:46;;;;;;;3.75;2.28;;;;;;;;;;5070994;28;20029;-64
2023/04/10 09:19:11;;;;;;;16.40;3.50;;;;;;;;;;5071265;28;20035;-64
2023/04/10 09:21:36;;;;;;;3.92;2.75;;;;;;;;;;5083198;28;20037;-64
2023/04/10 09:24:02;;;;;;;7.60;2.63;;;;;;;;;;5070878;28;20098;-63
2023/04/10 09:26:28;;;;;;;4.22;2.72;;;;;;;;;;5073282;28;20278;-64
2023/04/10 09:29:04;;;;;;;5.57;3.33;;;;;;;;;;5070822;28;20025;-64
2023/04/10 09:31:33;;;;;;;6.35;3.03;;;;;;;;;;5073364;28;20025;-66
2023/04/10 09:34:07;;;;;;;5.22;3.00;;;;;;;;;;5072560;28;20026;-64
2023/04/10 09:36:32;;;;;;;;;;;;;;;;;;5074215;28;20513;-63
2023/04/10 09:38:57;;;;;;;4.53;2.95;;;;;;;;;;5081506;28;20422;-65
2023/04/10 09:41:22;;;;;;;4.45;2.70;;;;;;;;;;5081025;28;20017;-65
2023/04/10 09:43:48;;;;;;;4.40;2.42;;;;;;;;;;5073908;28;20070;-63
2023/04/10 09:46:24;;;;;;;4.38;3.22;;;;;;;;;;5078891;28;20498;-63
2023/04/10 09:48:56;;;;;;;5.10;2.92;;;;;;;;;;5067055;28;20025;-63
2023/04/10 09:51:30;;;;;;;4.75;3.05;;;;;;;;;;5077944;28;20032;-63
2023/04/10 09:53:56;;;;;;;4.35;2.15;;;;;;;;;;5074711;28;20048;-63
2023/04/10 09:56:21;;;;;;;4.40;2.53;;;;;;;;;;5075958;28;20051;-64
2023/04/10 09:58:48;;;;;;;5.57;2.45;;;;;;;;;;5086135;28;20425;-63
2023/04/10 10:01:13;;;;;;;3.65;2.40;;;;;;;;;;5081737;28;20078;-62
2023/04/10 10:03:39;;;;;;;5.43;3.20;;;;;;;;;;5081034;28;20027;-61
2023/04/10 10:06:05;;;;;;;3.75;2.45;;;;;;;;;;5081370;28;20070;-62
2023/04/10 10:08:31;;;;;;;8.90;3.08;;;;;;;;;;5082982;28;20020;-63
2023/04/10 10:10:59;;;;;;;4.85;2.80;;;;;;;;;;5077409;28;20040;-63
2023/04/10 10:13:30;;;;;;;4.90;2.50;;;;;;;;;;5073842;28;20031;-64
2023/04/10 10:15:56;;;;;;;4.45;2.22;;;;;;;;;;5084414;28;20375;-63
2023/04/10 10:18:28;;;;;;;5.03;2.70;;;;;;;;;;5076012;28;20024;-63
2023/04/10 10:20:54;;;;;;;4.38;2.75;;;;;;;;;;5079550;28;20111;-63
2023/04/10 10:23:20;;;;;;;3.58;2.40;;;;;;;;;;5073964;28;20147;-63
2023/04/10 10:25:47;;;;;;;9.50;2.50;;;;;;;;;;5076143;28;20103;-63
2023/04/10 10:28:13;;;;;;;4.18;2.22;;;;;;;;;;5079545;28;20040;-63
2023/04/10 10:30:39;;;;;;;6.60;2.50;;;;;;;;;;5075900;28;20029;-63
2023/04/10 10:33:05;;;;;;;4.95;2.50;;;;;;;;;;5073829;28;20020;-63
2023/04/10 10:35:31;;;;;;;7.68;2.20;;;;;;;;;;5075501;28;20020;-64
2023/04/10 10:37:58;;;;;;;4.72;2.13;;;;;;;;;;5073256;28;20524;-64
2023/04/10 10:40:28;;;;;;;8.00;2.60;;;;;;;;;;5078279;28;20020;-65
2023/04/10 10:43:01;;;;;;;5.70;2.80;;;;;;;;;;5073905;28;20032;-64
2023/04/10 10:45:31;;;;;;;3.28;2.03;;;;;;;;;;5076170;28;20031;-67
2023/04/10 10:47:57;;;;;;;3.22;1.85;;;;;;;;;;5072830;28;20029;-64
2023/04/10 10:50:22;;;;;;;3.33;1.95;;;;;;;;;;5076126;28;20020;-64
2023/04/10 10:52:56;;;;;;;4.30;2.33;;;;;;;;;;5073760;28;20107;-65
2023/04/10 10:55:23;;;;;;;5.03;1.92;;;;;;;;;;5074542;28;20035;-65
2023/04/10 10:57:50;;;;;;;4.70;1.88;;;;;;;;;;5073523;28;20390;-68
2023/04/10 11:00:16;;;;;;;3.58;2.10;;;;;;;;;;5075535;28;20375;-65
2023/04/10 11:02:41;;;;;;;5.18;2.38;;;;;;;;;;5083426;28;20151;-66
2023/04/10 11:05:07;;;;;;;3.00;1.90;;;;;;;;;;5074002;28;20031;-65
2023/04/10 11:08:01;;;;;;;3.17;1.90;;;;;;;;;;5077154;28;20381;-66
2023/04/10 11:10:45;;;;;;;4.55;2.53;;;;;;;;;;5062602;28;20529;-66
2023/04/10 11:13:15;;;;;;;4.60;2.58;;;;;;;;;;5090693;28;20039;-65
2023/04/10 11:15:41;;;;;;;4.00;1.90;;;;;;;;;;5077382;28;20058;-65
2023/04/10 11:18:06;;;;;;;2.88;1.73;;;;;;;;;;5070139;28;20495;-66
2023/04/10 11:20:51;;;;;;;4.30;1.90;;;;;;;;;;5068744;28;20060;-66
2023/04/10 11:23:19;;;;;;;4.68;2.10;;;;;;;;;;5054678;28;20990;-66
2023/04/10 11:25:48;;;;;;;3.38;2.28;;;;;;;;;;5060263;28;20024;-67
2023/04/10 11:28:34;;;;;;;3.58;2.30;;;;;;;;;;5068386;28;20029;-68
2023/04/10 11:31:20;;;;;;;5.68;2.42;;;;;;;;;;5074267;28;20035;-66
2023/04/10 11:33:46;;;;;;;4.22;2.15;;;;;;;;;;5068579;28;20031;-65
2023/04/10 11:36:16;;;;;;;2.97;1.88;;;;;;;;;;5075928;28;20028;-69
2023/04/10 11:38:52;;;;;;;3.42;1.83;;;;;;;;;;5054765;28;20081;-66
2023/04/10 11:41:17;;;;;;;6.57;2.25;;;;;;;;;;5073139;28;20542;-67
2023/04/10 11:43:42;;;;;;;3.17;1.90;;;;;;;;;;5070747;28;20123;-67
2023/04/10 11:46:08;;;;;;;5.63;2.22;;;;;;;;;;5074605;28;21158;-68
2023/04/10 11:48:33;;;;;;;3.03;1.85;;;;;;;;;;5083444;28;20055;-67
2023/04/10 11:51:05;;;;;;;3.20;1.60;;;;;;;;;;5071245;28;20020;-66
2023/04/10 11:53:30;;;;;;;3.85;2.22;;;;;;;;;;5071423;28;20074;-66
2023/04/10 11:55:56;;;;;;;3.23;1.83;;;;;;;;;;5085635;28;20033;-68
2023/04/10 11:58:29;;;;;;;9.35;2.22;;;;;;;;;;5072360;28;20271;-67
2023/04/10 12:00:55;;;;;;;3.72;2.50;;;;;;;;;;5072635;28;20028;-68
2023/04/10 12:03:33;;;;;;;4.15;1.95;;;;;;;;;;5072548;28;20027;-65
2023/04/10 12:05:58;;;;;;;3.55;2.10;;;;;;;;;;5076425;28;20020;-66
2023/04/10 12:08:33;;;;;;;4.15;2.70;;;;;;;;;;5074911;28;20024;-67
2023/04/10 12:10:59;;;;;;;4.07;1.95;;;;;;;;;;5075624;28;20032;-67
2023/04/10 12:13:25;;;;;;;5.07;2.00;;;;;;;;;;5060128;28;20027;-66
2023/04/10 12:15:51;;;;;;;4.10;2.47;;;;;;;;;;5075079;28;20038;-67
2023/04/10 12:18:16;;;;;;;3.20;2.13;;;;;;;;;;5074922;28;20099;-68
2023/04/10 12:20:42;;;;;;;3.45;2.03;;;;;;;;;;5046969;28;20135;-67
2023/04/10 12:23:08;;;;;;;3.53;1.85;;;;;;;;;;5036652;28;20117;-67
2023/04/10 12:25:34;;;;;;;5.18;2.33;;;;;;;;;;5073024;28;20111;-67
2023/04/10 12:27:59;;;;;;;3.88;1.80;;;;;;;;;;5072329;28;20402;-67
2023/04/10 12:30:24;;;;;;;3.80;2.13;;;;;;;;;;5071940;28;20024;-65
2023/04/10 12:32:53;;;;;;;4.82;2.70;;;;;;;;;;5076534;28;20285;-65
2023/04/10 12:35:18;;;;;;;3.10;1.85;;;;;;;;;;5071001;28;20126;-65
2023/04/10 12:37:51;;;;;;;3.53;1.85;;;;;;;;;;5072816;28;20448;-66
2023/04/10 12:40:16;;;;;;;4.55;2.30;;;;;;;;;;5071821;28;20220;-64
2023/04/10 12:42:41;;;;;;;2.97;1.85;;;;;;;;;;5073599;28;20028;-67
2023/04/10 12:45:08;;;;;;;5.93;1.92;;;;;;;;;;5073229;28;20475;-67
2023/04/10 12:47:42;;;;;;;3.78;2.20;;;;;;;;;;5079301;28;20041;-65
2023/04/10 12:50:11;;;;;;;2.58;1.45;;;;;;;;;;5086704;28;20478;-65
2023/04/10 12:52:37;;;;;;;2.95;1.73;;;;;;;;;;5082625;28;20028;-65
2023/04/10 12:55:10;;;;;;;2.70;1.65;;;;;;;;;;5071585;28;20024;-66
2023/04/10 12:57:35;;;;;;;2.97;1.95;;;;;;;;;;5075169;28;20028;-65
2023/04/10 13:00:02;;;;;;;4.88;1.95;;;;;;;;;;5070922;28;20030;-65
2023/04/10 13:02:27;;;;;;;3.90;1.60;;;;;;;;;;5082633;28;20135;-65
2023/04/10 13:04:53;;;;;;;3.15;1.80;;;;;;;;;;5083894;28;20404;-67
2023/04/10 13:07:18;;;;;;;5.75;1.63;;;;;;;;;;5081350;28;20513;-67
2023/04/10 13:09:44;;;;;;;5.27;2.00;;;;;;;;;;5073365;28;20020;-66
2023/04/10 13:12:09;;;;;;;4.03;2.00;;;;;;;;;;5074613;28;20270;-66
2023/04/10 13:14:35;;;;;;;3.25;1.55;;;;;;;;;;5071674;28;20029;-67
2023/04/10 13:17:00;;;;;;;3.80;1.52;;;;;;;;;;5077136;28;20024;-68
2023/04/10 13:19:26;;;;;;;4.05;1.73;;;;;;;;;;5083563;28;20073;-66
2023/04/10 13:21:51;;;;;;;2.78;1.50;;;;;;;;;;5072007;28;20016;-68
2023/04/10 13:24:16;;;;;;;3.45;1.40;;;;;;;;;;5070949;28;20036;-68
2023/04/10 13:26:41;;;;;;;15.43;1.77;;;;;;;;;;5070477;28;20509;-65
2023/04/10 13:29:07;;;;;;;3.73;1.37;;;;;;;;;;5071112;28;20107;-65
2023/04/10 13:31:32;;;;;;;3.13;1.30;;;;;;;;;;5075617;28;20659;-65
2023/04/10 13:33:57;;;;;;;2.38;1.38;;;;;;;;;;5078169;28;20379;-65
2023/04/10 13:36:23;;;;;;;2.90;1.30;;;;;;;;;;5072995;28;20028;-66
2023/04/10 13:38:48;;;;;;;3.10;1.13;;;;;;;;;;5077952;28;20024;-68
2023/04/10 13:41:13;;;;;;;3.58;1.50;;;;;;;;;;5071971;28;20032;-66
2023/04/10 13:43:38;;;;;;;3.38;1.17;;;;;;;;;;5077121;28;20036;-66
2023/04/10 13:46:04;;;;;;;4.00;1.83;;;;;;;;;;5071233;28;20024;-66
2023/04/10 13:48:30;;;;;;;3.42;1.67;;;;;;;;;;5077718;28;20303;-67
2023/04/10 13:50:55;;;;;;;3.17;1.45;;;;;;;;;;5070886;28;20379;-67
2023/04/10 13:53:20;;;;;;;3.25;1.55;;;;;;;;;;5076282;28;20036;-67
2023/04/10 13:55:47;;;;;;;3.40;1.75;;;;;;;;;;5070434;28;20479;-65
2023/04/10 13:58:13;;;;;;;2.47;1.33;;;;;;;;;;5077839;28;20479;-63
2023/04/10 14:00:39;;;;;;;4.90;1.60;;;;;;;;;;5081692;28;20021;-62
2023/04/10 14:03:04;;;;;;;2.40;1.50;;;;;;;;;;5073661;28;20093;-70
2023/04/10 14:05:30;;;;;;;3.00;1.60;;;;;;;;;;5070391;28;20048;-64
2023/04/10 14:07:55;;;;;;;2.10;1.35;;;;;;;;;;5071942;28;20035;-66
2023/04/10 14:10:24;;;;;;;2.70;1.33;;;;;;;;;;5076652;28;20028;-66
2023/04/10 14:12:49;;;;;;;3.65;1.65;;;;;;;;;;5078471;28;20044;-66
2023/04/10 14:15:14;;;;;;;3.15;1.48;;;;;;;;;;5074508;28;20028;-66
2023/04/10 14:17:40;;;;;;;3.55;1.90;;;;;;;;;;5089660;28;20031;-65
2023/04/10 14:20:06;;;;;;;2.88;1.50;;;;;;;;;;5072860;28;20028;-65
2023/04/10 14:22:31;;;;;;;2.58;1.42;;;;;;;;;;5086182;28;20035;-65
2023/04/10 14:24:56;;;;;;;2.92;1.55;;;;;;;;;;5074673;28;20390;-65
2023/04/10 14:27:21;;;;;;;4.22;1.50;;;;;;;;;;5081786;28;20115;-65
2023/04/10 14:29:47;;;;;;;3.00;1.35;;;;;;;;;;5074741;28;20038;-64
2023/04/10 14:32:12;;;;;;;3.08;1.50;;;;;;;;;;5085262;28;20031;-66
2023/04/10 14:34:37;;;;;;;4.82;2.22;;;;;;;;;;5075001;28;20103;-64
2023/04/10 14:37:03;;;;;;;3.55;1.65;;;;;;;;;;5078668;28;20466;-64